sensor_id;sensor_type;location;lat;lon;timestamp;temperature;humidity
4908;DHT22;64375;51.540;7.364;2022-11-20T00:00:54;8.10;92.10
4908;DHT22;64375;51.540;7.364;2022-11-20T00:03:22;7.50;84.60
4908;DHT22;64375;51.540;7.364;2022-11-20T00:05:50;7.20;87.10
4908;DHT22;64375;51.540;7.364;2022-11-20T00:08:18;7.70;94.10
4908;DHT22;64375;51.540;7.364;2022-11-20T00:10:46;7.60;90.30
4908;DHT22;64375;51.540;7.364;2022-11-20T00:13:14;7.00;81.00
4908;DHT22;64375;51.540;7.364;2022-11-20T00:15:43;6.50;81.00
4908;DHT22;64375;51.540;7.364;2022-11-20T00:18:11;7.00;93.30
4908;DHT22;64375;51.540;7.364;2022-11-20T00:20:39;7.20;91.50
4908;DHT22;64375;51.540;7.364;2022-11-20T00:23:07;6.90;84.30
4908;DHT22;64375;51.540;7.364;2022-11-20T00:25:35;6.40;79.90
4908;DHT22;64375;51.540;7.364;2022-11-20T00:28:03;6.70;90.70
4908;DHT22;64375;51.540;7.364;2022-11-20T00:30:31;6.90;90.50
4908;DHT22;64375;51.540;7.364;2022-11-20T00:33:00;6.30;83.00
4908;DHT22;64375;51.540;7.364;2022-11-20T00:35:28;5.90;83.30
4908;DHT22;64375;51.540;7.364;2022-11-20T00:37:56;6.40;92.60
4908;DHT22;64375;51.540;7.364;2022-11-20T00:40:24;7.00;95.90
4908;DHT22;64375;51.540;7.364;2022-11-20T00:42:52;6.70;89.70
4908;DHT22;64375;51.540;7.364;2022-11-20T00:45:20;6.60;86.80
4908;DHT22;64375;51.540;7.364;2022-11-20T00:47:47;7.00;94.90
4908;DHT22;64375;51.540;7.364;2022-11-20T00:50:17;7.60;96.70
4908;DHT22;64375;51.540;7.364;2022-11-20T00:52:45;7.50;90.10
4908;DHT22;64375;51.540;7.364;2022-11-20T00:55:12;7.10;89.80
4908;DHT22;64375;51.540;7.364;2022-11-20T00:57:40;7.20;92.70
4908;DHT22;64375;51.540;7.364;2022-11-20T01:00:09;7.60;94.90
4908;DHT22;64375;51.540;7.364;2022-11-20T01:02:37;7.20;86.40
4908;DHT22;64375;51.540;7.364;2022-11-20T01:05:05;6.40;82.60
4908;DHT22;64375;51.540;7.364;2022-11-20T01:07:34;6.20;90.80
4908;DHT22;64375;51.540;7.364;2022-11-20T01:10:02;6.40;92.40
4908;DHT22;64375;51.540;7.364;2022-11-20T01:12:30;5.80;83.90
4908;DHT22;64375;51.540;7.364;2022-11-20T01:14:58;5.50;84.40
4908;DHT22;64375;51.540;7.364;2022-11-20T01:17:26;5.40;90.20
4908;DHT22;64375;51.540;7.364;2022-11-20T01:19:54;5.50;91.60
4908;DHT22;64375;51.540;7.364;2022-11-20T01:22:22;5.30;87.70
4908;DHT22;64375;51.540;7.364;2022-11-20T01:24:51;5.00;85.90
4908;DHT22;64375;51.540;7.364;2022-11-20T01:27:19;5.50;93.80
4908;DHT22;64375;51.540;7.364;2022-11-20T01:29:47;6.10;95.30
4908;DHT22;64375;51.540;7.364;2022-11-20T01:32:14;5.80;90.00
4908;DHT22;64375;51.540;7.364;2022-11-20T01:34:42;5.50;87.40
4908;DHT22;64375;51.540;7.364;2022-11-20T01:37:10;5.90;92.60
4908;DHT22;64375;51.540;7.364;2022-11-20T01:39:38;6.40;94.30
4908;DHT22;64375;51.540;7.364;2022-11-20T01:42:08;5.90;87.70
4908;DHT22;64375;51.540;7.364;2022-11-20T01:44:55;5.30;85.30
4908;DHT22;64375;51.540;7.364;2022-11-20T01:47:30;5.70;93.40
4908;DHT22;64375;51.540;7.364;2022-11-20T01:50:04;6.20;94.40
4908;DHT22;64375;51.540;7.364;2022-11-20T01:52:36;5.70;87.80
4908;DHT22;64375;51.540;7.364;2022-11-20T01:55:08;5.60;88.60
4908;DHT22;64375;51.540;7.364;2022-11-20T01:57:38;6.30;95.70
4908;DHT22;64375;51.540;7.364;2022-11-20T02:00:10;6.60;93.90
4908;DHT22;64375;51.540;7.364;2022-11-20T02:02:42;6.30;89.80
4908;DHT22;64375;51.540;7.364;2022-11-20T02:05:16;6.10;91.10
4908;DHT22;64375;51.540;7.364;2022-11-20T02:07:46;6.70;95.30
4908;DHT22;64375;51.540;7.364;2022-11-20T02:10:15;6.70;91.30
4908;DHT22;64375;51.540;7.364;2022-11-20T02:12:44;6.30;88.00
4908;DHT22;64375;51.540;7.364;2022-11-20T02:15:29;6.50;91.90
4908;DHT22;64375;51.540;7.364;2022-11-20T02:17:57;7.00;95.70
4908;DHT22;64375;51.540;7.364;2022-11-20T02:20:25;6.80;90.60
4908;DHT22;64375;51.540;7.364;2022-11-20T02:22:56;6.90;91.80
4908;DHT22;64375;51.540;7.364;2022-11-20T02:25:28;7.20;94.60
4908;DHT22;64375;51.540;7.364;2022-11-20T02:27:57;7.60;96.30
4908;DHT22;64375;51.540;7.364;2022-11-20T02:30:25;7.30;90.20
4908;DHT22;64375;51.540;7.364;2022-11-20T02:32:53;6.70;88.50
4908;DHT22;64375;51.540;7.364;2022-11-20T02:35:41;7.10;94.10
4908;DHT22;64375;51.540;7.364;2022-11-20T02:38:09;7.00;90.70
4908;DHT22;64375;51.540;7.364;2022-11-20T02:40:39;6.50;87.30
4908;DHT22;64375;51.540;7.364;2022-11-20T02:43:07;6.30;90.60
4908;DHT22;64375;51.540;7.364;2022-11-20T02:45:36;6.80;95.30
4908;DHT22;64375;51.540;7.364;2022-11-20T02:48:06;6.70;90.80
4908;DHT22;64375;51.540;7.364;2022-11-20T02:50:37;6.40;88.60
4908;DHT22;64375;51.540;7.364;2022-11-20T02:53:05;6.80;95.30
4908;DHT22;64375;51.540;7.364;2022-11-20T02:55:33;7.30;96.00
4908;DHT22;64375;51.540;7.364;2022-11-20T02:58:03;7.00;91.20
4908;DHT22;64375;51.540;7.364;2022-11-20T03:00:31;6.60;88.30
4908;DHT22;64375;51.540;7.364;2022-11-20T03:02:59;7.00;93.90
4908;DHT22;64375;51.540;7.364;2022-11-20T03:05:27;7.40;94.90
4908;DHT22;64375;51.540;7.364;2022-11-20T03:07:54;7.00;90.30
4908;DHT22;64375;51.540;7.364;2022-11-20T03:10:22;6.70;90.40
4908;DHT22;64375;51.540;7.364;2022-11-20T03:12:53;7.20;95.00
4908;DHT22;64375;51.540;7.364;2022-11-20T03:15:23;7.20;91.90
4908;DHT22;64375;51.540;7.364;2022-11-20T03:17:53;6.70;88.40
4908;DHT22;64375;51.540;7.364;2022-11-20T03:20:22;6.50;91.80
4908;DHT22;64375;51.540;7.364;2022-11-20T03:22:50;6.90;95.10
4908;DHT22;64375;51.540;7.364;2022-11-20T03:25:19;7.30;94.40
4908;DHT22;64375;51.540;7.364;2022-11-20T03:27:46;7.20;91.70
4908;DHT22;64375;51.540;7.364;2022-11-20T03:30:14;6.90;91.20
4908;DHT22;64375;51.540;7.364;2022-11-20T03:32:44;7.40;95.00
4908;DHT22;64375;51.540;7.364;2022-11-20T03:35:11;7.10;91.10
4908;DHT22;64375;51.540;7.364;2022-11-20T03:37:39;7.50;95.40
4908;DHT22;64375;51.540;7.364;2022-11-20T03:40:08;7.90;96.80
4908;DHT22;64375;51.540;7.364;2022-11-20T03:42:36;7.90;94.00
4908;DHT22;64375;51.540;7.364;2022-11-20T03:45:13;7.70;91.40
4908;DHT22;64375;51.540;7.364;2022-11-20T03:47:43;7.60;92.60
4908;DHT22;64375;51.540;7.364;2022-11-20T03:50:12;7.90;95.80
4908;DHT22;64375;51.540;7.364;2022-11-20T03:52:40;7.90;93.30
4908;DHT22;64375;51.540;7.364;2022-11-20T03:55:08;7.60;89.90
4908;DHT22;64375;51.540;7.364;2022-11-20T03:57:36;7.70;93.30
4908;DHT22;64375;51.540;7.364;2022-11-20T04:00:06;8.00;94.20
4908;DHT22;64375;51.540;7.364;2022-11-20T04:02:34;7.50;89.40
4908;DHT22;64375;51.540;7.364;2022-11-20T04:05:03;6.90;86.20
4908;DHT22;64375;51.540;7.364;2022-11-20T04:07:33;7.30;93.90
4908;DHT22;64375;51.540;7.364;2022-11-20T04:10:02;7.30;91.60
4908;DHT22;64375;51.540;7.364;2022-11-20T04:12:32;6.70;88.00
4908;DHT22;64375;51.540;7.364;2022-11-20T04:15:00;6.70;91.60
4908;DHT22;64375;51.540;7.364;2022-11-20T04:17:28;7.10;94.40
4908;DHT22;64375;51.540;7.364;2022-11-20T04:19:56;6.70;88.20
4908;DHT22;64375;51.540;7.364;2022-11-20T04:22:25;6.10;85.60
4908;DHT22;64375;51.540;7.364;2022-11-20T04:24:53;6.50;94.60
4908;DHT22;64375;51.540;7.364;2022-11-20T04:27:21;7.00;95.20
4908;DHT22;64375;51.540;7.364;2022-11-20T04:29:49;6.60;90.50
4908;DHT22;64375;51.540;7.364;2022-11-20T04:32:17;6.60;91.10
4908;DHT22;64375;51.540;7.364;2022-11-20T04:34:44;7.10;95.90
4908;DHT22;64375;51.540;7.364;2022-11-20T04:37:12;7.00;91.00
4908;DHT22;64375;51.540;7.364;2022-11-20T04:39:43;6.50;87.80
4908;DHT22;64375;51.540;7.364;2022-11-20T04:42:11;6.90;94.20
4908;DHT22;64375;51.540;7.364;2022-11-20T04:44:57;7.30;96.80
4908;DHT22;64375;51.540;7.364;2022-11-20T04:47:25;6.90;88.90
4908;DHT22;64375;51.540;7.364;2022-11-20T04:49:53;6.70;90.60
4908;DHT22;64375;51.540;7.364;2022-11-20T04:52:21;7.20;95.70
4908;DHT22;64375;51.540;7.364;2022-11-20T04:54:50;7.20;91.60
4908;DHT22;64375;51.540;7.364;2022-11-20T04:57:20;6.90;89.50
4908;DHT22;64375;51.540;7.364;2022-11-20T04:59:48;7.10;93.50
4908;DHT22;64375;51.540;7.364;2022-11-20T05:02:16;7.50;96.00
4908;DHT22;64375;51.540;7.364;2022-11-20T05:04:44;7.00;89.00
4908;DHT22;64375;51.540;7.364;2022-11-20T05:07:12;6.60;87.90
4908;DHT22;64375;51.540;7.364;2022-11-20T05:09:40;7.00;93.80
4908;DHT22;64375;51.540;7.364;2022-11-20T05:12:09;7.30;93.20
4908;DHT22;64375;51.540;7.364;2022-11-20T05:14:37;6.70;88.70
4908;DHT22;64375;51.540;7.364;2022-11-20T05:17:05;6.50;91.60
4908;DHT22;64375;51.540;7.364;2022-11-20T05:19:33;7.00;95.70
4908;DHT22;64375;51.540;7.364;2022-11-20T05:22:01;7.60;98.30
4908;DHT22;64375;51.540;7.364;2022-11-20T05:24:29;7.50;93.60
4908;DHT22;64375;51.540;7.364;2022-11-20T05:26:56;7.70;96.00
4908;DHT22;64375;51.540;7.364;2022-11-20T05:29:26;8.10;97.90
4908;DHT22;64375;51.540;7.364;2022-11-20T05:31:53;8.30;96.20
4908;DHT22;64375;51.540;7.364;2022-11-20T05:34:21;8.20;95.20
4908;DHT22;64375;51.540;7.364;2022-11-20T05:36:49;8.70;97.70
4908;DHT22;64375;51.540;7.364;2022-11-20T05:39:17;8.90;97.20
4908;DHT22;64375;51.540;7.364;2022-11-20T05:41:46;8.50;92.90
4908;DHT22;64375;51.540;7.364;2022-11-20T05:44:35;8.50;94.30
4908;DHT22;64375;51.540;7.364;2022-11-20T05:47:03;8.80;96.80
4908;DHT22;64375;51.540;7.364;2022-11-20T05:49:31;9.00;97.00
4908;DHT22;64375;51.540;7.364;2022-11-20T05:51:59;9.10;95.90
4908;DHT22;64375;51.540;7.364;2022-11-20T05:54:27;9.20;96.50
4908;DHT22;64375;51.540;7.364;2022-11-20T05:56:54;9.30;96.50
4908;DHT22;64375;51.540;7.364;2022-11-20T05:59:22;9.20;92.90
4908;DHT22;64375;51.540;7.364;2022-11-20T06:01:52;8.80;94.00
4908;DHT22;64375;51.540;7.364;2022-11-20T06:04:19;9.00;95.80
4908;DHT22;64375;51.540;7.364;2022-11-20T06:06:47;8.50;88.70
4908;DHT22;64375;51.540;7.364;2022-11-20T06:09:15;7.70;88.70
4908;DHT22;64375;51.540;7.364;2022-11-20T06:11:43;7.70;91.30
4908;DHT22;64375;51.540;7.364;2022-11-20T06:14:11;7.70;91.90
4908;DHT22;64375;51.540;7.364;2022-11-20T06:16:39;7.30;87.90
4908;DHT22;64375;51.540;7.364;2022-11-20T06:19:08;7.40;92.20
4908;DHT22;64375;51.540;7.364;2022-11-20T06:21:36;7.70;93.60
4908;DHT22;64375;51.540;7.364;2022-11-20T06:24:05;7.90;93.70
4908;DHT22;64375;51.540;7.364;2022-11-20T06:26:33;8.30;96.50
4908;DHT22;64375;51.540;7.364;2022-11-20T06:29:00;8.20;91.40
4908;DHT22;64375;51.540;7.364;2022-11-20T06:31:28;7.90;89.30
4908;DHT22;64375;51.540;7.364;2022-11-20T06:33:59;7.90;91.60
4908;DHT22;64375;51.540;7.364;2022-11-20T06:36:28;7.90;90.70
4908;DHT22;64375;51.540;7.364;2022-11-20T06:38:56;7.60;85.20
4908;DHT22;64375;51.540;7.364;2022-11-20T06:41:24;7.70;94.60
4908;DHT22;64375;51.540;7.364;2022-11-20T06:43:52;8.20;96.30
4908;DHT22;64375;51.540;7.364;2022-11-20T06:46:20;8.50;97.10
4908;DHT22;64375;51.540;7.364;2022-11-20T06:48:49;8.80;97.10
4908;DHT22;64375;51.540;7.364;2022-11-20T06:51:17;8.70;92.50
4908;DHT22;64375;51.540;7.364;2022-11-20T06:53:47;8.80;95.60
4908;DHT22;64375;51.540;7.364;2022-11-20T06:56:15;9.00;96.80
4908;DHT22;64375;51.540;7.364;2022-11-20T06:58:43;9.10;95.20
4908;DHT22;64375;51.540;7.364;2022-11-20T07:01:12;9.20;96.10
4908;DHT22;64375;51.540;7.364;2022-11-20T07:03:41;9.50;96.90
4908;DHT22;64375;51.540;7.364;2022-11-20T07:06:09;9.60;96.20
4908;DHT22;64375;51.540;7.364;2022-11-20T07:08:37;9.60;94.40
4908;DHT22;64375;51.540;7.364;2022-11-20T07:11:07;9.60;95.00
4908;DHT22;64375;51.540;7.364;2022-11-20T07:13:35;9.80;95.40
4908;DHT22;64375;51.540;7.364;2022-11-20T07:16:06;9.40;91.50
4908;DHT22;64375;51.540;7.364;2022-11-20T07:18:34;8.80;87.40
4908;DHT22;64375;51.540;7.364;2022-11-20T07:21:03;9.10;93.50
4908;DHT22;64375;51.540;7.364;2022-11-20T07:23:31;8.10;76.50
4908;DHT22;64375;51.540;7.364;2022-11-20T07:26:03;7.30;94.70
4908;DHT22;64375;51.540;7.364;2022-11-20T07:28:32;7.50;91.60
4908;DHT22;64375;51.540;7.364;2022-11-20T07:31:00;8.00;96.40
4908;DHT22;64375;51.540;7.364;2022-11-20T07:33:28;8.40;97.30
4908;DHT22;64375;51.540;7.364;2022-11-20T07:35:58;8.50;95.20
4908;DHT22;64375;51.540;7.364;2022-11-20T07:38:26;8.40;91.70
4908;DHT22;64375;51.540;7.364;2022-11-20T07:40:54;8.50;94.40
4908;DHT22;64375;51.540;7.364;2022-11-20T07:43:23;8.90;96.50
4908;DHT22;64375;51.540;7.364;2022-11-20T07:45:54;8.90;95.00
4908;DHT22;64375;51.540;7.364;2022-11-20T07:48:22;8.80;92.70
4908;DHT22;64375;51.540;7.364;2022-11-20T07:50:53;8.80;93.60
4908;DHT22;64375;51.540;7.364;2022-11-20T07:53:21;9.10;96.10
4908;DHT22;64375;51.540;7.364;2022-11-20T07:55:49;9.00;92.80
4908;DHT22;64375;51.540;7.364;2022-11-20T07:58:18;8.50;82.20
4908;DHT22;64375;51.540;7.364;2022-11-20T08:00:46;5.80;80.70
4908;DHT22;64375;51.540;7.364;2022-11-20T08:03:16;5.20;85.40
4908;DHT22;64375;51.540;7.364;2022-11-20T08:05:50;4.90;86.60
4908;DHT22;64375;51.540;7.364;2022-11-20T08:08:18;3.70;88.20
4908;DHT22;64375;51.540;7.364;2022-11-20T08:10:46;3.60;92.10
4908;DHT22;64375;51.540;7.364;2022-11-20T08:13:14;3.40;92.30
4908;DHT22;64375;51.540;7.364;2022-11-20T08:16:00;4.40;99.90
4908;DHT22;64375;51.540;7.364;2022-11-20T08:18:29;4.40;94.20
4908;DHT22;64375;51.540;7.364;2022-11-20T08:21:02;5.20;99.90
4908;DHT22;64375;51.540;7.364;2022-11-20T08:23:31;6.70;99.90
4908;DHT22;64375;51.540;7.364;2022-11-20T08:25:59;7.80;93.40
4908;DHT22;64375;51.540;7.364;2022-11-20T08:28:26;8.80;89.00
4908;DHT22;64375;51.540;7.364;2022-11-20T08:30:58;9.30;84.60
4908;DHT22;64375;51.540;7.364;2022-11-20T08:33:27;9.60;86.30
4908;DHT22;64375;51.540;7.364;2022-11-20T08:35:59;9.80;85.20
4908;DHT22;64375;51.540;7.364;2022-11-20T08:38:28;9.90;80.40
4908;DHT22;64375;51.540;7.364;2022-11-20T08:40:57;9.90;79.00
4908;DHT22;64375;51.540;7.364;2022-11-20T08:43:42;9.90;79.90
4908;DHT22;64375;51.540;7.364;2022-11-20T08:46:10;9.20;77.50
4908;DHT22;64375;51.540;7.364;2022-11-20T08:48:38;8.20;79.80
4908;DHT22;64375;51.540;7.364;2022-11-20T08:51:07;7.60;82.10
4908;DHT22;64375;51.540;7.364;2022-11-20T08:53:35;7.50;83.40
4908;DHT22;64375;51.540;7.364;2022-11-20T08:56:03;7.40;90.20
4908;DHT22;64375;51.540;7.364;2022-11-20T08:58:31;7.10;86.60
4908;DHT22;64375;51.540;7.364;2022-11-20T09:01:19;7.30;91.90
4908;DHT22;64375;51.540;7.364;2022-11-20T09:03:47;7.70;93.70
4908;DHT22;64375;51.540;7.364;2022-11-20T09:06:17;7.30;90.00
4908;DHT22;64375;51.540;7.364;2022-11-20T09:08:45;7.30;91.80
4908;DHT22;64375;51.540;7.364;2022-11-20T09:11:12;7.30;90.20
4908;DHT22;64375;51.540;7.364;2022-11-20T09:13:40;7.10;91.50
4908;DHT22;64375;51.540;7.364;2022-11-20T09:16:08;7.20;94.00
4908;DHT22;64375;51.540;7.364;2022-11-20T09:18:37;7.70;97.10
4908;DHT22;64375;51.540;7.364;2022-11-20T09:21:06;7.90;95.80
4908;DHT22;64375;51.540;7.364;2022-11-20T09:23:37;7.70;93.20
4908;DHT22;64375;51.540;7.364;2022-11-20T09:26:06;8.00;96.70
4908;DHT22;64375;51.540;7.364;2022-11-20T09:28:34;8.40;97.50
4908;DHT22;64375;51.540;7.364;2022-11-20T09:31:05;8.10;94.10
4908;DHT22;64375;51.540;7.364;2022-11-20T09:33:33;8.10;94.70
4908;DHT22;64375;51.540;7.364;2022-11-20T09:36:01;8.30;96.70
4908;DHT22;64375;51.540;7.364;2022-11-20T09:38:29;8.00;92.70
4908;DHT22;64375;51.540;7.364;2022-11-20T09:41:02;7.20;91.80
4908;DHT22;64375;51.540;7.364;2022-11-20T09:43:49;7.30;96.00
4908;DHT22;64375;51.540;7.364;2022-11-20T09:46:26;7.80;99.90
4908;DHT22;64375;51.540;7.364;2022-11-20T09:49:13;8.40;99.90
4908;DHT22;64375;51.540;7.364;2022-11-20T09:51:50;8.20;97.30
4908;DHT22;64375;51.540;7.364;2022-11-20T09:54:24;8.50;98.90
4908;DHT22;64375;51.540;7.364;2022-11-20T09:56:58;8.80;99.90
4908;DHT22;64375;51.540;7.364;2022-11-20T09:59:32;8.80;98.80
4908;DHT22;64375;51.540;7.364;2022-11-20T10:02:05;9.00;99.90
4908;DHT22;64375;51.540;7.364;2022-11-20T10:04:43;9.30;99.90
4908;DHT22;64375;51.540;7.364;2022-11-20T10:07:16;9.50;99.90
4908;DHT22;64375;51.540;7.364;2022-11-20T10:10:00;9.70;99.50
4908;DHT22;64375;51.540;7.364;2022-11-20T10:12:40;8.70;91.40
4908;DHT22;64375;51.540;7.364;2022-11-20T10:15:25;7.70;92.00
4908;DHT22;64375;51.540;7.364;2022-11-20T10:18:16;7.80;98.40
4908;DHT22;64375;51.540;7.364;2022-11-20T10:20:55;8.60;99.90
4908;DHT22;64375;51.540;7.364;2022-11-20T10:23:37;8.70;97.60
4908;DHT22;64375;51.540;7.364;2022-11-20T10:26:17;8.60;98.60
4908;DHT22;64375;51.540;7.364;2022-11-20T10:29:00;8.80;99.90
4908;DHT22;64375;51.540;7.364;2022-11-20T10:31:36;9.60;99.90
4908;DHT22;64375;51.540;7.364;2022-11-20T10:34:10;10.20;99.90
4908;DHT22;64375;51.540;7.364;2022-11-20T10:36:52;10.30;99.90
4908;DHT22;64375;51.540;7.364;2022-11-20T10:39:29;10.60;99.90
4908;DHT22;64375;51.540;7.364;2022-11-20T10:41:59;10.90;99.70
4908;DHT22;64375;51.540;7.364;2022-11-20T10:44:29;10.80;99.30
4908;DHT22;64375;51.540;7.364;2022-11-20T10:47:22;10.80;99.90
4908;DHT22;64375;51.540;7.364;2022-11-20T10:49:52;10.90;99.90
4908;DHT22;64375;51.540;7.364;2022-11-20T10:52:25;11.60;99.90
4908;DHT22;64375;51.540;7.364;2022-11-20T10:55:01;11.80;99.30
4908;DHT22;64375;51.540;7.364;2022-11-20T10:57:46;11.70;98.90
4908;DHT22;64375;51.540;7.364;2022-11-20T11:00:20;11.30;97.30
4908;DHT22;64375;51.540;7.364;2022-11-20T11:02:49;10.90;94.10
4908;DHT22;64375;51.540;7.364;2022-11-20T11:05:32;11.10;99.20
4908;DHT22;64375;51.540;7.364;2022-11-20T11:08:01;11.30;99.80
4908;DHT22;64375;51.540;7.364;2022-11-20T11:10:37;11.40;99.80
4908;DHT22;64375;51.540;7.364;2022-11-20T11:13:09;11.50;99.80
4908;DHT22;64375;51.540;7.364;2022-11-20T11:15:47;11.60;99.60
4908;DHT22;64375;51.540;7.364;2022-11-20T11:18:23;11.60;99.30
4908;DHT22;64375;51.540;7.364;2022-11-20T11:20:53;11.60;99.20
4908;DHT22;64375;51.540;7.364;2022-11-20T11:23:32;12.00;99.70
4908;DHT22;64375;51.540;7.364;2022-11-20T11:26:04;12.10;93.40
4908;DHT22;64375;51.540;7.364;2022-11-20T11:28:33;12.00;92.20
4908;DHT22;64375;51.540;7.364;2022-11-20T11:31:02;11.80;92.70
4908;DHT22;64375;51.540;7.364;2022-11-20T11:33:31;11.70;94.10
4908;DHT22;64375;51.540;7.364;2022-11-20T11:36:01;11.50;92.40
4908;DHT22;64375;51.540;7.364;2022-11-20T11:38:34;10.80;86.50
4908;DHT22;64375;51.540;7.364;2022-11-20T11:41:03;10.60;91.60
4908;DHT22;64375;51.540;7.364;2022-11-20T11:43:34;10.40;92.30
4908;DHT22;64375;51.540;7.364;2022-11-20T11:46:32;10.70;96.80
4908;DHT22;64375;51.540;7.364;2022-11-20T11:49:09;10.20;89.30
4908;DHT22;64375;51.540;7.364;2022-11-20T11:51:47;10.10;91.60
4908;DHT22;64375;51.540;7.364;2022-11-20T11:54:22;10.00;91.90
4908;DHT22;64375;51.540;7.364;2022-11-20T11:56:51;9.80;91.30
4908;DHT22;64375;51.540;7.364;2022-11-20T11:59:25;9.70;90.20
4908;DHT22;64375;51.540;7.364;2022-11-20T12:01:59;8.90;92.00
4908;DHT22;64375;51.540;7.364;2022-11-20T12:04:42;9.10;93.40
4908;DHT22;64375;51.540;7.364;2022-11-20T12:07:15;9.30;92.90
4908;DHT22;64375;51.540;7.364;2022-11-20T12:10:14;8.90;90.90
4908;DHT22;64375;51.540;7.364;2022-11-20T12:12:45;9.40;98.10
4908;DHT22;64375;51.540;7.364;2022-11-20T12:15:26;9.80;99.20
4908;DHT22;64375;51.540;7.364;2022-11-20T12:17:56;10.10;99.70
4908;DHT22;64375;51.540;7.364;2022-11-20T12:20:28;9.90;92.70
4908;DHT22;64375;51.540;7.364;2022-11-20T12:23:01;9.60;93.00
4908;DHT22;64375;51.540;7.364;2022-11-20T12:25:35;9.60;92.80
4908;DHT22;64375;51.540;7.364;2022-11-20T12:28:18;9.00;90.20
4908;DHT22;64375;51.540;7.364;2022-11-20T12:30:55;8.10;90.40
4908;DHT22;64375;51.540;7.364;2022-11-20T12:33:41;7.40;91.40
4908;DHT22;64375;51.540;7.364;2022-11-20T12:36:19;7.80;96.10
4908;DHT22;64375;51.540;7.364;2022-11-20T12:42:05;7.70;92.90
4908;DHT22;64375;51.540;7.364;2022-11-20T12:45:25;7.50;95.90
4908;DHT22;64375;51.540;7.364;2022-11-20T12:48:17;8.10;99.20
4908;DHT22;64375;51.540;7.364;2022-11-20T12:50:58;8.10;93.60
4908;DHT22;64375;51.540;7.364;2022-11-20T12:53:47;7.90;91.20
4908;DHT22;64375;51.540;7.364;2022-11-20T12:56:24;7.70;94.60
4908;DHT22;64375;51.540;7.364;2022-11-20T12:59:08;8.30;99.90
4908;DHT22;64375;51.540;7.364;2022-11-20T13:01:49;9.20;99.90
4908;DHT22;64375;51.540;7.364;2022-11-20T13:07:14;9.30;96.30
4908;DHT22;64375;51.540;7.364;2022-11-20T13:09:45;9.10;93.60
4908;DHT22;64375;51.540;7.364;2022-11-20T13:12:17;9.30;97.40
4908;DHT22;64375;51.540;7.364;2022-11-20T13:14:52;9.10;92.50
4908;DHT22;64375;51.540;7.364;2022-11-20T13:17:28;9.40;98.40
4908;DHT22;64375;51.540;7.364;2022-11-20T13:19:58;9.70;98.50
4908;DHT22;64375;51.540;7.364;2022-11-20T13:22:30;9.50;91.80
4908;DHT22;64375;51.540;7.364;2022-11-20T13:25:10;8.90;92.30
4908;DHT22;64375;51.540;7.364;2022-11-20T13:27:47;8.50;92.00
4908;DHT22;64375;51.540;7.364;2022-11-20T13:30:17;8.00;92.00
4908;DHT22;64375;51.540;7.364;2022-11-20T13:32:50;7.70;92.00
4908;DHT22;64375;51.540;7.364;2022-11-20T13:35:28;7.80;94.80
4908;DHT22;64375;51.540;7.364;2022-11-20T13:38:04;8.10;95.80
4908;DHT22;64375;51.540;7.364;2022-11-20T13:40:33;7.80;92.00
4908;DHT22;64375;51.540;7.364;2022-11-20T13:43:07;7.40;92.20
4908;DHT22;64375;51.540;7.364;2022-11-20T13:45:38;7.20;92.40
4908;DHT22;64375;51.540;7.364;2022-11-20T13:48:19;6.60;92.60
4908;DHT22;64375;51.540;7.364;2022-11-20T13:50:55;6.40;93.10
4908;DHT22;64375;51.540;7.364;2022-11-20T13:53:46;6.40;97.70
4908;DHT22;64375;51.540;7.364;2022-11-20T13:56:24;7.10;99.90
4908;DHT22;64375;51.540;7.364;2022-11-20T13:58:59;7.20;94.70
4908;DHT22;64375;51.540;7.364;2022-11-20T14:01:31;6.90;93.40
4908;DHT22;64375;51.540;7.364;2022-11-20T14:04:06;6.90;94.30
4908;DHT22;64375;51.540;7.364;2022-11-20T14:06:41;6.90;96.00
4908;DHT22;64375;51.540;7.364;2022-11-20T14:09:23;7.30;97.40
4908;DHT22;64375;51.540;7.364;2022-11-20T14:11:52;7.60;97.50
4908;DHT22;64375;51.540;7.364;2022-11-20T14:14:21;7.80;95.10
4908;DHT22;64375;51.540;7.364;2022-11-20T14:16:52;8.40;98.80
4908;DHT22;64375;51.540;7.364;2022-11-20T14:19:28;8.30;94.40
4908;DHT22;64375;51.540;7.364;2022-11-20T14:22:09;8.20;92.80
4908;DHT22;64375;51.540;7.364;2022-11-20T14:24:39;7.60;92.60
4908;DHT22;64375;51.540;7.364;2022-11-20T14:27:12;7.40;93.50
4908;DHT22;64375;51.540;7.364;2022-11-20T14:29:41;7.20;94.00
4908;DHT22;64375;51.540;7.364;2022-11-20T14:32:10;7.20;95.40
4908;DHT22;64375;51.540;7.364;2022-11-20T14:34:40;7.70;99.70
4908;DHT22;64375;51.540;7.364;2022-11-20T14:37:12;8.10;98.30
4908;DHT22;64375;51.540;7.364;2022-11-20T14:39:49;8.10;95.60
4908;DHT22;64375;51.540;7.364;2022-11-20T14:42:20;8.60;98.20
4908;DHT22;64375;51.540;7.364;2022-11-20T14:44:48;8.60;97.00
4908;DHT22;64375;51.540;7.364;2022-11-20T14:47:19;8.50;94.20
4908;DHT22;64375;51.540;7.364;2022-11-20T14:49:49;8.50;96.00
4908;DHT22;64375;51.540;7.364;2022-11-20T14:52:19;8.10;93.90
4908;DHT22;64375;51.540;7.364;2022-11-20T14:54:50;8.20;94.90
4908;DHT22;64375;51.540;7.364;2022-11-20T14:57:24;8.00;94.10
4908;DHT22;64375;51.540;7.364;2022-11-20T15:00:04;8.10;97.70
4908;DHT22;64375;51.540;7.364;2022-11-20T15:02:33;8.60;98.80
4908;DHT22;64375;51.540;7.364;2022-11-20T15:05:02;8.40;95.10
4908;DHT22;64375;51.540;7.364;2022-11-20T15:07:32;8.60;96.30
4908;DHT22;64375;51.540;7.364;2022-11-20T15:10:05;8.20;93.20
4908;DHT22;64375;51.540;7.364;2022-11-20T15:12:35;7.50;93.50
4908;DHT22;64375;51.540;7.364;2022-11-20T15:15:05;7.40;95.20
4908;DHT22;64375;51.540;7.364;2022-11-20T15:17:36;7.60;96.90
4908;DHT22;64375;51.540;7.364;2022-11-20T15:20:10;7.70;96.30
4908;DHT22;64375;51.540;7.364;2022-11-20T15:22:39;7.90;95.20
4908;DHT22;64375;51.540;7.364;2022-11-20T15:25:13;8.00;96.30
4908;DHT22;64375;51.540;7.364;2022-11-20T15:27:42;7.80;94.40
4908;DHT22;64375;51.540;7.364;2022-11-20T15:30:15;7.80;95.30
4908;DHT22;64375;51.540;7.364;2022-11-20T15:32:44;7.60;94.80
4908;DHT22;64375;51.540;7.364;2022-11-20T15:35:13;7.20;95.80
4908;DHT22;64375;51.540;7.364;2022-11-20T15:37:41;7.80;99.90
4908;DHT22;64375;51.540;7.364;2022-11-20T15:40:10;7.80;95.40
4908;DHT22;64375;51.540;7.364;2022-11-20T15:42:39;7.60;94.80
4908;DHT22;64375;51.540;7.364;2022-11-20T15:45:37;7.30;95.60
4908;DHT22;64375;51.540;7.364;2022-11-20T15:48:10;8.00;99.90
4908;DHT22;64375;51.540;7.364;2022-11-20T15:50:43;8.40;99.90
4908;DHT22;64375;51.540;7.364;2022-11-20T15:53:14;8.20;94.90
4908;DHT22;64375;51.540;7.364;2022-11-20T15:55:42;7.90;95.60
4908;DHT22;64375;51.540;7.364;2022-11-20T15:58:11;8.00;96.80
4908;DHT22;64375;51.540;7.364;2022-11-20T16:00:39;8.00;95.80
4908;DHT22;64375;51.540;7.364;2022-11-20T16:03:09;8.10;96.70
4908;DHT22;64375;51.540;7.364;2022-11-20T16:05:38;7.80;95.30
4908;DHT22;64375;51.540;7.364;2022-11-20T16:08:05;7.50;95.30
4908;DHT22;64375;51.540;7.364;2022-11-20T16:10:37;7.60;98.50
4908;DHT22;64375;51.540;7.364;2022-11-20T16:13:10;8.20;99.90
4908;DHT22;64375;51.540;7.364;2022-11-20T16:15:58;8.40;98.50
4908;DHT22;64375;51.540;7.364;2022-11-20T16:18:26;8.20;96.40
4908;DHT22;64375;51.540;7.364;2022-11-20T16:20:54;8.10;96.20
4908;DHT22;64375;51.540;7.364;2022-11-20T16:23:23;8.40;99.30
4908;DHT22;64375;51.540;7.364;2022-11-20T16:25:51;9.00;99.90
4908;DHT22;64375;51.540;7.364;2022-11-20T16:28:20;8.90;96.80
4908;DHT22;64375;51.540;7.364;2022-11-20T16:30:48;8.70;96.30
4908;DHT22;64375;51.540;7.364;2022-11-20T16:33:17;8.60;96.60